Time;durP1;ratioP1;P1;durP2;ratioP2;P2;SDS_P1;SDS_P2;PMS_P1;PMS_P2;Temp;Humidity;BMP_temperature;BMP_pressure;BME280_temperature;BME280_humidity;BME280_pressure;Samples;Min_cycle;Max_cycle;Signal;HPM_P1;HPM_P2
2023/09/28 00:03:43;;;;;;;4.95;3.03;;;21.10;99.90;;;;;;10058288;28;20025;-69
2023/09/28 00:08:33;;;;;;;6.07;2.85;;;21.10;99.90;;;;;;10055625;28;20124;-70
2023/09/28 00:13:25;;;;;;;5.75;3.20;;;21.00;99.90;;;;;;10056888;28;20137;-72
2023/09/28 00:18:16;;;;;;;5.50;3.15;;;20.90;99.90;;;;;;10056378;28;20128;-69
2023/09/28 00:23:06;;;;;;;6.60;3.05;;;21.00;99.90;;;;;;10056178;28;20037;-68
2023/09/28 00:27:57;;;;;;;3.20;2.90;;;21.00;99.90;;;;;;10054333;28;20295;-71
2023/09/28 00:32:53;;;;;;;4.47;2.53;;;20.90;99.90;;;;;;10061409;28;20108;-69
2023/09/28 00:37:44;;;;;;;4.70;2.83;;;21.00;99.90;;;;;;10055269;28;20045;-70
2023/09/28 00:42:35;;;;;;;4.50;2.72;;;20.90;99.90;;;;;;10055093;28;20056;-69
2023/09/28 00:47:25;;;;;;;5.18;2.90;;;20.80;99.90;;;;;;10051611;28;20041;-69
2023/09/28 00:52:17;;;;;;;3.95;2.60;;;20.80;99.90;;;;;;10040746;28;20022;-71
2023/09/28 00:57:08;;;;;;;5.88;3.20;;;20.80;99.90;;;;;;10056999;28;20034;-71
2023/09/28 01:01:59;;;;;;;3.65;2.72;;;20.80;99.90;;;;;;10056795;28;20029;-68
2023/09/28 01:06:51;;;;;;;4.45;2.80;;;20.70;99.90;;;;;;10055268;28;20045;-70
2023/09/28 01:11:42;;;;;;;3.95;2.40;;;20.60;99.90;;;;;;10055417;28;20030;-71
2023/09/28 01:16:33;;;;;;;4.00;2.53;;;20.70;99.90;;;;;;10060377;28;20103;-73
2023/09/28 01:21:24;;;;;;;5.38;2.90;;;20.70;99.90;;;;;;10066442;28;20403;-70
2023/09/28 01:26:15;;;;;;;6.03;3.20;;;20.60;99.90;;;;;;10067375;28;20029;-70
2023/09/28 01:31:05;;;;;;;5.28;3.15;;;20.70;99.90;;;;;;10071158;28;20044;-70
2023/09/28 01:35:56;;;;;;;4.72;2.85;;;20.60;99.90;;;;;;10062207;28;20021;-71
2023/09/28 01:40:48;;;;;;;4.90;2.72;;;20.60;99.90;;;;;;10062436;28;20067;-72
2023/09/28 01:45:39;;;;;;;5.57;2.85;;;20.60;99.90;;;;;;10062012;28;20030;-71
2023/09/28 01:50:31;;;;;;;6.40;2.38;;;20.60;99.90;;;;;;10063176;28;20033;-69
2023/09/28 01:55:23;;;;;;;4.18;2.30;;;20.60;99.90;;;;;;10061551;28;20037;-78
2023/09/28 02:00:14;;;;;;;4.25;3.00;;;20.50;99.90;;;;;;10059824;28;20413;-79
2023/09/28 02:05:07;;;;;;;4.38;2.45;;;20.50;99.90;;;;;;10060201;28;20022;-76
2023/09/28 02:09:58;;;;;;;3.97;2.53;;;20.50;99.90;;;;;;10060762;28;20039;-79
2023/09/28 02:14:49;;;;;;;4.30;2.42;;;20.50;99.90;;;;;;10061154;28;20025;-79
2023/09/28 02:19:39;;;;;;;7.80;3.08;;;20.40;99.90;;;;;;10060568;28;20628;-77
2023/09/28 02:24:30;;;;;;;5.70;2.80;;;20.40;99.90;;;;;;10059034;28;20018;-71
2023/09/28 02:29:22;;;;;;;4.93;2.85;;;20.40;99.90;;;;;;10060183;28;20045;-79
2023/09/28 02:34:13;;;;;;;3.80;2.85;;;20.20;99.90;;;;;;10063309;28;20028;-69
2023/09/28 02:39:07;;;;;;;2.97;2.13;;;20.30;99.90;;;;;;10057810;28;20056;-73
2023/09/28 02:43:58;;;;;;;4.90;2.70;;;20.40;99.90;;;;;;10059827;28;20034;-76
2023/09/28 02:48:48;;;;;;;4.03;2.65;;;20.40;99.90;;;;;;10059376;28;20025;-74
2023/09/28 02:53:39;;;;;;;3.25;2.50;;;20.40;99.90;;;;;;10059077;28;20108;-76
2023/09/28 02:58:30;;;;;;;4.35;2.67;;;20.40;99.90;;;;;;10059113;28;20041;-70
2023/09/28 03:03:20;;;;;;;6.28;3.03;;;20.30;99.90;;;;;;10057566;28;20489;-73
2023/09/28 03:08:14;;;;;;;5.10;2.80;;;20.30;99.90;;;;;;10057467;28;20021;-69
2023/09/28 03:13:05;;;;;;;4.03;2.78;;;20.30;99.90;;;;;;10059107;28;20029;-70
2023/09/28 03:17:56;;;;;;;6.20;3.22;;;20.30;99.90;;;;;;10057944;28;20232;-70
2023/09/28 03:22:49;;;;;;;5.05;2.60;;;20.20;99.90;;;;;;10068585;28;20124;-72
2023/09/28 03:27:40;;;;;;;4.43;2.70;;;20.30;99.90;;;;;;10059033;28;20526;-68
2023/09/28 03:32:31;;;;;;;5.80;3.17;;;20.30;99.90;;;;;;10054678;28;20029;-69
2023/09/28 03:37:22;;;;;;;7.20;2.97;;;20.20;99.90;;;;;;10057414;28;20053;-68
2023/09/28 03:42:12;;;;;;;4.82;3.53;;;20.20;99.90;;;;;;10057317;28;20359;-68
2023/09/28 03:47:03;;;;;;;4.85;2.58;;;20.10;99.90;;;;;;10056912;28;20120;-70
2023/09/28 03:51:54;;;;;;;4.30;2.97;;;20.10;99.90;;;;;;10057019;28;20036;-68
2023/09/28 03:56:44;;;;;;;4.72;2.78;;;20.10;99.90;;;;;;10053772;28;20052;-70
2023/09/28 04:01:35;;;;;;;5.28;2.92;;;20.00;99.90;;;;;;10056611;28;20029;-68
2023/09/28 04:06:25;;;;;;;5.38;2.92;;;20.10;99.90;;;;;;10055405;28;20087;-68
2023/09/28 04:11:16;;;;;;;3.97;2.90;;;20.00;99.90;;;;;;10056654;28;20132;-68
2023/09/28 04:16:07;;;;;;;4.35;2.90;;;20.00;99.90;;;;;;10056289;28;20048;-68
2023/09/28 04:20:57;;;;;;;4.05;2.80;;;19.90;99.90;;;;;;10054785;28;20033;-68
2023/09/28 04:25:48;;;;;;;4.70;2.78;;;20.00;99.90;;;;;;10055794;28;20051;-68
2023/09/28 04:30:39;;;;;;;5.50;2.53;;;19.90;99.90;;;;;;10057174;28;20049;-68
2023/09/28 04:35:29;;;;;;;6.57;3.45;;;19.80;99.90;;;;;;10056836;28;20040;-69
2023/09/28 04:40:25;;;;;;;4.75;3.15;;;19.70;99.90;;;;;;10055768;28;20030;-68
2023/09/28 04:45:16;;;;;;;4.43;2.70;;;19.70;99.90;;;;;;10052319;28;20398;-68
2023/09/28 04:50:07;;;;;;;5.00;3.13;;;19.70;99.90;;;;;;10060312;28;20037;-70
2023/09/28 04:54:57;;;;;;;8.15;3.03;;;19.50;99.90;;;;;;10066989;28;20090;-69
2023/09/28 04:59:48;;;;;;;4.55;2.75;;;19.50;99.90;;;;;;10063344;28;20053;-71
2023/09/28 05:04:39;;;;;;;5.70;3.35;;;19.60;99.90;;;;;;10063851;28;20191;-71
2023/09/28 05:09:29;;;;;;;6.43;3.58;;;19.50;99.90;;;;;;10061735;28;20041;-69
2023/09/28 05:14:24;;;;;;;5.18;3.10;;;19.40;99.90;;;;;;10066418;28;20048;-69
2023/09/28 05:19:14;;;;;;;4.32;3.28;;;19.50;99.90;;;;;;10061850;28;20037;-70
2023/09/28 05:24:05;;;;;;;5.82;3.80;;;19.50;99.90;;;;;;10062808;28;20033;-72
2023/09/28 05:28:56;;;;;;;5.22;2.92;;;19.50;99.90;;;;;;10067166;28;20068;-69
2023/09/28 05:33:46;;;;;;;8.02;3.33;;;19.50;99.90;;;;;;10060671;28;20522;-69
2023/09/28 05:38:37;;;;;;;6.40;3.70;;;19.50;99.90;;;;;;10060966;28;20041;-69
2023/09/28 05:43:28;;;;;;;7.00;3.45;;;19.50;99.90;;;;;;10060270;28;20505;-69
2023/09/28 05:48:18;;;;;;;5.63;3.33;;;19.40;99.90;;;;;;10057948;28;20055;-68
2023/09/28 05:53:09;;;;;;;4.95;3.38;;;19.50;99.90;;;;;;10066720;28;20036;-70
2023/09/28 05:57:59;;;;;;;6.25;3.38;;;19.50;99.90;;;;;;10065783;28;20120;-70
2023/09/28 06:02:50;;;;;;;7.55;3.22;;;19.50;99.90;;;;;;10061305;28;20029;-70
2023/09/28 06:07:41;;;;;;;6.45;3.33;;;19.40;99.90;;;;;;10060393;28;20590;-68
2023/09/28 06:12:31;;;;;;;7.88;4.05;;;19.20;99.90;;;;;;10059827;28;20115;-75
2023/09/28 06:17:23;;;;;;;7.20;4.03;;;19.30;99.90;;;;;;10059814;28;20084;-72
2023/09/28 06:22:13;;;;;;;9.55;4.20;;;19.30;99.90;;;;;;10060667;28;20401;-69
2023/09/28 06:27:05;;;;;;;8.30;3.97;;;19.30;99.90;;;;;;10051948;28;20176;-73
2023/09/28 06:31:56;;;;;;;7.95;3.42;;;19.20;99.90;;;;;;10061732;28;20021;-73
2023/09/28 06:36:47;;;;;;;6.95;3.65;;;19.20;99.90;;;;;;10059820;28;20160;-69
2023/09/28 06:41:41;;;;;;;6.60;3.95;;;19.20;99.90;;;;;;10062010;28;20457;-69
2023/09/28 06:46:32;;;;;;;6.10;3.75;;;19.20;99.90;;;;;;10059712;28;20100;-68
2023/09/28 06:51:22;;;;;;;4.78;3.20;;;19.30;99.90;;;;;;10059995;28;20583;-70
2023/09/28 06:56:13;;;;;;;5.70;3.67;;;19.20;99.90;;;;;;10061686;28;20026;-68
2023/09/28 07:01:04;;;;;;;5.55;2.95;;;19.30;99.90;;;;;;10056217;28;20391;-75
2023/09/28 07:05:55;;;;;;;5.15;3.70;;;19.30;99.90;;;;;;10056032;28;20037;-71
2023/09/28 07:10:45;;;;;;;4.65;2.92;;;19.30;99.90;;;;;;10054772;28;20022;-71
2023/09/28 07:15:36;;;;;;;5.10;2.92;;;19.40;99.90;;;;;;10051279;28;20039;-73
2023/09/28 07:20:27;;;;;;;7.18;3.10;;;19.30;99.90;;;;;;10058779;28;20120;-80
2023/09/28 07:25:19;;;;;;;4.95;3.75;;;19.40;99.90;;;;;;10041682;28;20536;-75
2023/09/28 07:30:11;;;;;;;3.85;2.67;;;19.40;99.90;;;;;;10061220;28;20045;-81
2023/09/28 07:35:02;;;;;;;5.80;3.38;;;19.50;99.90;;;;;;10064179;28;20548;-75
2023/09/28 07:39:53;;;;;;;6.68;3.22;;;19.50;99.90;;;;;;10059535;28;20103;-73
2023/09/28 07:44:45;;;;;;;6.13;2.97;;;19.60;99.90;;;;;;10051719;28;20469;-78
2023/09/28 07:49:36;;;;;;;5.03;2.92;;;19.70;99.90;;;;;;10055876;28;20129;-74
2023/09/28 07:54:26;;;;;;;4.85;3.60;;;19.80;99.90;;;;;;10048230;28;20129;-76
2023/09/28 07:59:17;;;;;;;5.70;3.38;;;19.80;99.90;;;;;;10056777;28;20132;-69
2023/09/28 08:04:11;;;;;;;4.75;2.95;;;20.00;99.90;;;;;;10055813;28;20491;-69
2023/09/28 08:09:02;;;;;;;6.63;3.15;;;20.00;99.90;;;;;;10058850;28;20028;-71
2023/09/28 08:13:53;;;;;;;6.85;2.80;;;20.00;99.90;;;;;;10053838;28;20561;-73
2023/09/28 08:18:44;;;;;;;6.65;4.03;;;20.00;99.90;;;;;;10055351;28;20236;-71
2023/09/28 08:23:37;;;;;;;7.20;3.40;;;20.10;99.90;;;;;;10053785;28;20516;-72
2023/09/28 08:28:27;;;;;;;5.65;3.28;;;20.10;99.90;;;;;;10052694;28;20422;-72
2023/09/28 08:33:18;;;;;;;5.43;3.22;;;20.20;99.90;;;;;;10056287;28;20025;-70
2023/09/28 08:38:09;;;;;;;4.68;2.80;;;20.20;99.90;;;;;;10056067;28;20049;-70
2023/09/28 08:43:04;;;;;;;6.30;3.00;;;20.30;99.90;;;;;;10053038;28;20033;-74
2023/09/28 08:47:57;;;;;;;7.53;3.00;;;20.30;99.90;;;;;;10058392;28;20441;-71
2023/09/28 08:52:50;;;;;;;5.25;2.88;;;20.40;99.90;;;;;;10056098;28;20026;-70
2023/09/28 08:57:43;;;;;;;6.53;3.08;;;20.40;99.90;;;;;;10052609;28;20069;-71
2023/09/28 09:02:33;;;;;;;4.60;2.88;;;20.40;99.90;;;;;;10055408;28;20057;-72
2023/09/28 09:07:24;;;;;;;4.72;2.97;;;20.50;99.90;;;;;;10054175;28;20033;-71
2023/09/28 09:12:15;;;;;;;4.28;2.80;;;20.50;99.90;;;;;;10054763;28;20037;-71
2023/09/28 09:17:06;;;;;;;5.25;2.95;;;20.60;99.90;;;;;;10052981;28;20490;-72
2023/09/28 09:21:57;;;;;;;4.05;3.20;;;20.70;99.90;;;;;;10055662;28;20411;-71
2023/09/28 09:26:50;;;;;;;4.07;2.78;;;20.70;99.90;;;;;;10055354;28;20293;-70
2023/09/28 09:31:42;;;;;;;4.70;2.80;;;20.70;99.90;;;;;;10060998;28;20040;-72
2023/09/28 09:36:33;;;;;;;4.88;3.13;;;20.80;99.90;;;;;;10054322;28;20518;-71
2023/09/28 09:41:24;;;;;;;5.40;2.72;;;20.80;99.90;;;;;;10065452;28;20514;-74
2023/09/28 09:46:15;;;;;;;6.03;3.30;;;20.90;99.90;;;;;;10062043;28;20114;-70
2023/09/28 09:51:12;;;;;;;6.90;3.30;;;21.00;99.90;;;;;;10061489;28;20386;-69
2023/09/28 09:56:04;;;;;;;6.03;2.85;;;21.00;99.90;;;;;;10059506;28;20076;-69
2023/09/28 10:01:00;;;;;;;8.15;2.90;;;21.10;99.90;;;;;;10055615;28;20041;-70
2023/09/28 10:05:52;;;;;;;5.05;2.90;;;21.10;99.90;;;;;;10059033;28;20049;-71
2023/09/28 10:10:45;;;;;;;4.82;2.63;;;21.20;99.90;;;;;;10066935;28;20029;-69
2023/09/28 10:15:36;;;;;;;5.43;3.15;;;21.30;99.90;;;;;;10059909;28;20030;-70
2023/09/28 10:20:27;;;;;;;4.10;2.47;;;21.40;99.90;;;;;;10060235;28;20580;-68
2023/09/28 10:25:18;;;;;;;6.28;3.63;;;21.50;99.90;;;;;;10059740;28;20044;-68
2023/09/28 10:30:18;;;;;;;5.15;2.35;;;21.60;99.90;;;;;;10061353;28;20041;-72
2023/09/28 10:35:27;;;;;;;3.53;2.15;;;21.70;99.90;;;;;;10072251;28;20026;-72
2023/09/28 10:40:18;;;;;;;3.83;2.50;;;21.80;99.90;;;;;;10057195;28;20128;-78
2023/09/28 10:45:09;;;;;;;4.43;3.35;;;21.80;99.90;;;;;;10059676;28;20546;-73
2023/09/28 10:50:01;;;;;;;4.10;2.47;;;21.80;99.90;;;;;;10058977;28;20041;-71
2023/09/28 10:54:52;;;;;;;4.95;2.95;;;21.90;99.90;;;;;;10060628;28;20025;-76
2023/09/28 10:59:43;;;;;;;6.35;3.80;;;21.90;99.90;;;;;;10059409;28;20490;-76
2023/09/28 11:04:37;;;;;;;5.55;3.53;;;21.90;99.90;;;;;;10056706;28;20021;-74
2023/09/28 11:09:31;;;;;;;7.35;3.40;;;21.90;99.90;;;;;;10055702;28;20030;-75
2023/09/28 11:14:25;;;;;;;3.77;2.50;;;22.00;99.90;;;;;;10054497;28;20545;-77
2023/09/28 11:19:16;;;;;;;3.70;2.58;;;22.10;99.90;;;;;;10059192;28;20300;-76
2023/09/28 11:24:06;;;;;;;3.63;2.40;;;22.10;99.90;;;;;;10058908;28;20060;-71
2023/09/28 11:28:58;;;;;;;3.72;2.38;;;22.10;99.90;;;;;;10057737;28;20107;-76
2023/09/28 11:33:50;;;;;;;5.60;2.92;;;22.10;99.90;;;;;;10069901;28;20502;-76
2023/09/28 11:38:41;;;;;;;4.88;3.50;;;22.10;99.90;;;;;;10056431;28;20045;-76
2023/09/28 11:43:50;;;;;;;5.30;3.13;;;22.20;99.90;;;;;;10058127;28;20022;-75
2023/09/28 11:48:41;;;;;;;4.30;2.50;;;22.30;99.90;;;;;;10065582;28;20104;-75
2023/09/28 11:53:32;;;;;;;5.65;3.92;;;22.30;99.90;;;;;;10054428;28;20124;-72
2023/09/28 11:58:24;;;;;;;4.90;2.47;;;22.40;99.90;;;;;;10055742;28;20518;-70
2023/09/28 12:03:16;;;;;;;5.25;2.45;;;22.60;99.90;;;;;;10054630;28;20067;-70
2023/09/28 12:08:07;;;;;;;4.22;2.88;;;22.80;99.90;;;;;;10055157;28;20029;-71
2023/09/28 12:12:58;;;;;;;2.95;2.13;;;22.80;99.90;;;;;;10056041;28;20025;-70
2023/09/28 12:17:49;;;;;;;4.60;2.25;;;22.80;99.90;;;;;;10054095;28;20041;-70
2023/09/28 12:22:40;;;;;;;4.97;2.30;;;22.90;99.90;;;;;;10045553;28;20430;-70
2023/09/28 12:27:35;;;;;;;4.88;2.47;;;23.00;99.90;;;;;;10045536;28;20037;-71
2023/09/28 12:32:28;;;;;;;6.10;2.78;;;23.20;99.90;;;;;;10059426;28;20307;-70
2023/09/28 12:37:21;;;;;;;6.32;2.90;;;23.30;99.90;;;;;;10049595;28;20042;-70
2023/09/28 12:42:15;;;;;;;4.72;2.42;;;23.40;99.90;;;;;;10052568;28;20119;-69
2023/09/28 12:47:06;;;;;;;4.87;2.30;;;23.60;99.90;;;;;;10053238;28;20482;-69
2023/09/28 12:51:56;;;;;;;4.20;1.98;;;23.60;99.90;;;;;;10053565;28;20021;-74
2023/09/28 12:56:47;;;;;;;4.45;2.40;;;23.80;99.90;;;;;;10054159;28;20045;-72
2023/09/28 13:01:37;;;;;;;5.15;2.15;;;24.00;99.90;;;;;;10057475;28;20534;-73
2023/09/28 13:06:29;;;;;;;3.75;2.20;;;24.00;99.90;;;;;;10054503;28;20051;-72
2023/09/28 13:11:19;;;;;;;4.75;2.13;;;24.20;99.90;;;;;;10059588;28;20022;-71
2023/09/28 13:16:13;;;;;;;3.92;1.77;;;24.40;99.90;;;;;;10061920;28;20029;-71
2023/09/28 13:21:04;;;;;;;3.65;1.80;;;24.40;99.90;;;;;;10061880;28;20025;-73
2023/09/28 13:25:55;;;;;;;5.30;3.28;;;24.60;99.90;;;;;;10060682;28;20033;-74
2023/09/28 13:30:47;;;;;;;2.25;1.70;;;24.60;99.70;;;;;;10063377;28;20053;-73
2023/09/28 13:35:37;;;;;;;4.18;2.00;;;24.70;99.50;;;;;;10064083;28;20250;-75
2023/09/28 13:40:34;;;;;;;4.13;2.40;;;24.80;99.30;;;;;;10061370;28;20267;-70
2023/09/28 13:45:26;;;;;;;4.15;2.20;;;24.90;99.10;;;;;;10060777;28;20061;-77
2023/09/28 13:50:16;;;;;;;3.47;1.90;;;25.00;98.80;;;;;;10060154;28;20064;-75
2023/09/28 13:55:08;;;;;;;5.22;2.33;;;25.10;98.70;;;;;;10053566;28;20396;-71
2023/09/28 14:00:00;;;;;;;3.72;2.00;;;25.20;98.50;;;;;;10060419;28;20042;-70
2023/09/28 14:04:51;;;;;;;4.78;2.28;;;25.40;98.40;;;;;;10059229;28;20389;-71
2023/09/28 14:09:42;;;;;;;5.20;3.28;;;25.60;98.20;;;;;;10061052;28;20144;-74
2023/09/28 14:14:33;;;;;;;3.35;2.03;;;25.60;98.10;;;;;;10058072;28;20033;-72
2023/09/28 14:19:23;;;;;;;3.50;1.83;;;25.60;98.00;;;;;;10057913;28;20096;-70
2023/09/28 14:24:14;;;;;;;3.80;2.10;;;25.70;98.00;;;;;;10060010;28;20041;-72
2023/09/28 14:29:05;;;;;;;4.95;2.08;;;25.70;98.00;;;;;;10058002;28;20080;-73
2023/09/28 14:33:56;;;;;;;5.22;1.73;;;25.90;97.90;;;;;;10055816;28;20034;-73
2023/09/28 14:38:49;;;;;;;5.30;2.38;;;26.20;97.80;;;;;;10059762;28;20037;-72
2023/09/28 14:43:41;;;;;;;2.72;1.88;;;26.40;98.00;;;;;;10054698;28;20094;-72
2023/09/28 14:48:32;;;;;;;3.10;2.28;;;26.50;97.60;;;;;;10058905;28;20083;-72
2023/09/28 14:53:22;;;;;;;4.30;2.33;;;26.70;97.80;;;;;;10058331;28;20035;-72
2023/09/28 14:58:13;;;;;;;5.07;2.60;;;26.90;97.40;;;;;;10058275;28;20129;-71
2023/09/28 15:03:04;;;;;;;4.30;2.22;;;27.00;97.30;;;;;;10058685;28;20063;-71
2023/09/28 15:07:55;;;;;;;4.38;2.22;;;27.20;97.20;;;;;;10058982;28;20121;-73
2023/09/28 15:12:46;;;;;;;4.70;1.98;;;27.30;97.00;;;;;;10057514;28;20132;-74
2023/09/28 15:17:37;;;;;;;4.15;1.98;;;27.50;97.00;;;;;;10063741;28;20446;-72
2023/09/28 15:22:27;;;;;;;3.80;2.10;;;27.50;96.90;;;;;;10059624;28;20041;-70
2023/09/28 15:27:18;;;;;;;4.78;2.13;;;27.60;96.80;;;;;;10056810;28;20046;-71
2023/09/28 15:32:13;;;;;;;4.57;2.17;;;27.60;96.70;;;;;;10062891;28;20033;-71
2023/09/28 15:37:03;;;;;;;4.00;3.00;;;27.60;96.60;;;;;;10054523;28;20051;-71
2023/09/28 15:41:54;;;;;;;2.85;2.30;;;27.90;96.50;;;;;;10055684;28;20367;-69
2023/09/28 15:46:45;;;;;;;4.32;2.80;;;28.00;96.40;;;;;;10055593;28;20033;-68
2023/09/28 15:51:35;;;;;;;3.38;2.13;;;28.10;96.20;;;;;;10056337;28;20037;-66
2023/09/28 15:56:27;;;;;;;3.60;2.13;;;28.10;96.00;;;;;;10054993;28;20033;-70
2023/09/28 16:01:18;;;;;;;4.72;2.72;;;28.20;95.90;;;;;;10056382;28;20112;-69
2023/09/28 16:06:09;;;;;;;4.22;2.80;;;28.20;95.70;;;;;;10057363;28;20117;-68
2023/09/28 16:11:03;;;;;;;4.35;2.13;;;28.20;95.70;;;;;;10056112;28;20112;-69
2023/09/28 16:15:55;;;;;;;5.20;2.10;;;27.90;95.60;;;;;;10054684;28;20548;-69
2023/09/28 16:20:49;;;;;;;5.50;2.72;;;27.70;95.70;;;;;;10057055;28;20056;-69
2023/09/28 16:25:39;;;;;;;9.43;3.47;;;27.50;95.60;;;;;;10056794;28;20548;-68
2023/09/28 16:30:30;;;;;;;5.75;3.20;;;27.30;95.60;;;;;;10058716;28;20128;-69
2023/09/28 16:35:21;;;;;;;5.57;2.97;;;27.20;95.60;;;;;;10052651;28;20044;-71
2023/09/28 16:40:12;;;;;;;7.80;3.53;;;27.10;95.70;;;;;;10054323;28;20706;-68
2023/09/28 16:45:04;;;;;;;5.45;3.10;;;27.00;95.70;;;;;;10057193;28;20044;-68
2023/09/28 16:49:55;;;;;;;11.63;4.30;;;27.00;95.70;;;;;;10055515;28;20041;-69
2023/09/28 16:54:45;;;;;;;8.55;5.28;;;27.00;95.70;;;;;;10050284;28;20021;-69
2023/09/28 16:59:36;;;;;;;10.90;7.00;;;26.90;95.80;;;;;;10053461;28;20033;-69
2023/09/28 17:04:27;;;;;;;10.77;6.90;;;26.80;95.90;;;;;;10051131;28;20597;-71
2023/09/28 17:09:18;;;;;;;9.70;5.30;;;26.70;96.00;;;;;;10052346;28;20029;-69
2023/09/28 17:14:09;;;;;;;7.07;4.75;;;26.60;96.10;;;;;;10052789;28;20168;-69
2023/09/28 17:18:59;;;;;;;8.73;4.93;;;26.60;96.30;;;;;;10054834;28;20038;-70
2023/09/28 17:23:50;;;;;;;11.18;4.63;;;26.60;96.70;;;;;;10055004;28;20042;-71
2023/09/28 17:28:42;;;;;;;8.18;5.00;;;26.50;96.50;;;;;;10052198;28;20503;-72
2023/09/28 17:33:33;;;;;;;11.02;5.60;;;26.50;96.70;;;;;;10060586;28;20383;-72
2023/09/28 17:38:24;;;;;;;9.27;5.78;;;26.40;96.80;;;;;;10050631;28;20041;-71
2023/09/28 17:43:18;;;;;;;8.80;5.05;;;26.40;96.90;;;;;;10053400;28;20040;-70
2023/09/28 17:48:11;;;;;;;;;;;26.40;97.00;;;;;;10054608;28;20422;-71
2023/09/28 17:53:03;;;;;;;10.48;5.10;;;26.40;97.10;;;;;;10029810;28;19905;-71
2023/09/28 17:57:55;;;;;;;10.30;5.45;;;26.40;97.20;;;;;;10056521;28;20037;-69
2023/09/28 18:02:46;;;;;;;8.10;4.35;;;26.30;97.30;;;;;;10061363;28;20482;-69
2023/09/28 18:07:37;;;;;;;8.90;4.53;;;26.30;97.40;;;;;;10059052;28;20076;-70
2023/09/28 18:12:29;;;;;;;9.90;4.50;;;26.30;97.50;;;;;;10058058;28;20038;-68
2023/09/28 18:17:19;;;;;;;7.57;5.00;;;26.20;97.60;;;;;;10057417;28;20083;-69
2023/09/28 18:22:10;;;;;;;9.52;4.10;;;26.20;97.70;;;;;;10059236;28;20029;-70
2023/09/28 18:27:03;;;;;;;8.35;4.32;;;26.20;97.80;;;;;;10058985;28;20045;-70
2023/09/28 18:31:54;;;;;;;8.75;4.47;;;26.20;97.90;;;;;;10065041;28;20448;-70
2023/09/28 18:36:44;;;;;;;10.63;5.05;;;26.20;98.10;;;;;;10063525;28;20048;-69
2023/09/28 18:41:35;;;;;;;10.82;5.28;;;26.10;98.20;;;;;;10059033;28;20068;-70
2023/09/28 18:46:26;;;;;;;15.73;8.85;;;26.10;98.30;;;;;;10058757;28;20148;-70
2023/09/28 18:51:16;;;;;;;17.05;7.45;;;26.10;98.50;;;;;;10063903;28;20033;-69
2023/09/28 18:56:08;;;;;;;11.43;6.53;;;26.00;98.60;;;;;;10056207;28;20033;-70
2023/09/28 19:00:59;;;;;;;11.45;6.28;;;26.00;98.80;;;;;;10059014;28;20120;-70
2023/09/28 19:05:50;;;;;;;10.02;6.60;;;25.90;98.90;;;;;;10056724;28;20834;-69
2023/09/28 19:10:40;;;;;;;16.00;6.47;;;25.90;99.10;;;;;;10056890;28;20029;-69
2023/09/28 19:15:32;;;;;;;15.23;6.50;;;25.80;99.20;;;;;;10057183;28;20030;-69
2023/09/28 19:20:24;;;;;;;11.52;6.03;;;25.80;99.20;;;;;;10058320;28;20033;-69
2023/09/28 19:25:15;;;;;;;9.40;5.35;;;25.80;99.30;;;;;;10056701;28;20061;-69
2023/09/28 19:30:09;;;;;;;9.18;5.18;;;25.70;99.40;;;;;;10057991;28;20057;-69
2023/09/28 19:35:00;;;;;;;9.10;5.00;;;25.70;99.60;;;;;;10060520;28;20022;-69
2023/09/28 19:39:51;;;;;;;7.03;5.05;;;25.60;99.70;;;;;;10056136;28;20065;-69
2023/09/28 19:44:42;;;;;;;8.88;4.03;;;25.60;99.80;;;;;;10058286;28;20041;-70
2023/09/28 19:49:34;;;;;;;9.95;4.85;;;25.50;99.90;;;;;;10055890;28;20029;-69
2023/09/28 19:54:24;;;;;;;11.27;6.15;;;25.60;99.90;;;;;;10054436;28;20014;-69
2023/09/28 19:59:15;;;;;;;9.52;5.53;;;25.60;99.90;;;;;;10055159;28;20041;-70
2023/09/28 20:04:06;;;;;;;9.70;5.97;;;25.40;99.90;;;;;;10052226;28;20021;-69
2023/09/28 20:08:58;;;;;;;8.40;5.20;;;25.40;99.90;;;;;;10055161;28;20545;-70
2023/09/28 20:13:49;;;;;;;10.70;5.28;;;25.40;99.90;;;;;;10052587;28;20084;-70
2023/09/28 20:18:40;;;;;;;12.52;6.35;;;25.40;99.90;;;;;;10053623;28;20053;-69
2023/09/28 20:23:31;;;;;;;8.90;4.93;;;25.40;99.90;;;;;;10051373;28;20299;-70
2023/09/28 20:28:22;;;;;;;11.95;7.00;;;25.40;99.90;;;;;;10051562;28;20369;-69
2023/09/28 20:33:13;;;;;;;11.00;6.78;;;25.20;99.90;;;;;;10055773;28;20033;-69
2023/09/28 20:38:04;;;;;;;13.85;7.30;;;25.30;99.90;;;;;;10054476;28;20033;-71
2023/09/28 20:42:55;;;;;;;16.75;7.88;;;25.20;99.90;;;;;;10053819;28;20041;-69
2023/09/28 20:47:46;;;;;;;12.75;8.00;;;25.10;99.90;;;;;;10055437;28;20036;-71
2023/09/28 20:52:37;;;;;;;21.13;8.27;;;25.20;99.90;;;;;;10051135;28;20474;-69
2023/09/28 20:57:28;;;;;;;14.93;6.93;;;25.10;99.90;;;;;;10055642;28;20045;-70
2023/09/28 21:02:18;;;;;;;13.88;8.45;;;25.00;99.90;;;;;;10053125;28;20111;-69
2023/09/28 21:07:11;;;;;;;14.52;8.75;;;25.00;99.90;;;;;;10054736;28;20491;-69
2023/09/28 21:12:01;;;;;;;12.82;7.28;;;25.00;99.90;;;;;;10054649;28;20026;-69
2023/09/28 21:16:52;;;;;;;15.13;7.68;;;24.90;99.90;;;;;;10056523;28;20409;-68
2023/09/28 21:21:43;;;;;;;12.85;6.43;;;24.80;99.90;;;;;;10047220;28;20025;-69
2023/09/28 21:26:33;;;;;;;12.18;7.32;;;24.90;99.90;;;;;;10036203;28;20092;-72
2023/09/28 21:31:24;;;;;;;12.88;7.50;;;24.90;99.90;;;;;;10055494;28;20088;-69
2023/09/28 21:36:15;;;;;;;13.93;7.85;;;24.90;99.90;;;;;;10064377;28;20104;-72
2023/09/28 21:41:10;;;;;;;10.98;6.40;;;24.70;99.90;;;;;;10060050;28;20069;-66
2023/09/28 21:46:01;;;;;;;14.40;7.68;;;24.60;99.90;;;;;;10072688;28;20554;-67
2023/09/28 21:50:52;;;;;;;12.95;8.00;;;24.50;99.90;;;;;;10058748;28;20449;-66
2023/09/28 21:55:42;;;;;;;13.57;7.57;;;24.50;99.90;;;;;;10076246;28;20105;-66
2023/09/28 22:05:24;;;;;;;11.65;7.60;;;24.40;99.90;;;;;;10060464;28;20025;-67
2023/09/28 22:10:15;;;;;;;14.55;7.50;;;24.20;99.90;;;;;;10060846;28;20057;-68
2023/09/28 22:15:07;;;;;;;11.40;6.28;;;24.10;99.90;;;;;;10060536;28;20025;-65
2023/09/28 22:20:00;;;;;;;11.82;6.85;;;23.90;99.90;;;;;;10060027;28;20048;-69
2023/09/28 22:24:51;;;;;;;14.10;5.85;;;23.80;99.90;;;;;;10050219;28;20875;-67
2023/09/28 22:29:42;;;;;;;10.80;6.25;;;23.70;99.90;;;;;;10059990;28;20050;-67
2023/09/28 22:34:34;;;;;;;10.48;6.32;;;23.60;99.90;;;;;;10064878;28;20032;-65
2023/09/28 22:39:25;;;;;;;7.70;5.35;;;23.60;99.90;;;;;;10059071;28;20073;-66
2023/09/28 22:44:15;;;;;;;9.32;5.63;;;23.50;99.90;;;;;;10055752;28;20368;-66
2023/09/28 22:49:06;;;;;;;8.45;5.32;;;23.50;99.90;;;;;;10059725;28;20037;-67
2023/09/28 22:53:57;;;;;;;10.98;5.85;;;23.70;99.90;;;;;;10057240;28;20033;-66
2023/09/28 22:58:47;;;;;;;7.18;4.70;;;23.80;99.90;;;;;;10058179;28;20446;-64
2023/09/28 23:03:38;;;;;;;11.77;4.53;;;23.70;99.90;;;;;;10053092;28;20029;-66
2023/09/28 23:08:29;;;;;;;9.52;4.90;;;23.70;99.90;;;;;;10057492;28;20075;-67
2023/09/28 23:13:20;;;;;;;8.95;3.90;;;23.50;99.90;;;;;;10058466;28;20220;-69
2023/09/28 23:18:11;;;;;;;9.27;3.88;;;23.60;99.90;;;;;;10059057;28;20331;-68
2023/09/28 23:23:02;;;;;;;5.85;3.92;;;23.60;99.90;;;;;;10057705;28;20395;-66
2023/09/28 23:27:53;;;;;;;7.85;4.00;;;23.40;99.90;;;;;;10057750;28;20662;-67
2023/09/28 23:32:51;;;;;;;6.22;3.67;;;23.40;99.90;;;;;;10065106;28;20295;-70
2023/09/28 23:37:43;;;;;;;5.22;3.10;;;23.10;99.90;;;;;;10057219;28;20106;-67
2023/09/28 23:42:33;;;;;;;7.25;3.35;;;23.00;99.90;;;;;;10057608;28;20017;-67
2023/09/28 23:47:24;;;;;;;6.25;3.95;;;22.90;99.90;;;;;;10057894;28;20533;-67
2023/09/28 23:52:15;;;;;;;4.95;3.60;;;23.00;99.90;;;;;;10057624;28;20034;-66
2023/09/28 23:57:05;;;;;;;5.43;3.85;;;23.00;99.90;;;;;;10054102;28;20091;-73
